Time;durP1;ratioP1;P1;durP2;ratioP2;P2;SDS_P1;SDS_P2;PMS_P1;PMS_P2;Temp;Humidity;BMP_temperature;BMP_pressure;BME280_temperature;BME280_humidity;BME280_pressure;Samples;Min_cycle;Max_cycle;Signal;HPM_P1;HPM_P2
2022/09/03 00:02:18;;;;;;;0.30;0.30;;;15.20;99.90;;;;;;4268371;33;20100;-76
2022/09/03 00:05:04;;;;;;;0.37;0.37;;;15.20;99.90;;;;;;4268573;33;20068;-76
2022/09/03 00:07:48;;;;;;;0.57;0.57;;;15.20;99.90;;;;;;4268146;33;20150;-76
2022/09/03 00:10:25;;;;;;;0.30;0.30;;;15.20;99.90;;;;;;4267594;33;20084;-76
2022/09/03 00:12:56;;;;;;;0.50;0.50;;;15.20;99.90;;;;;;4267746;33;20085;-76
2022/09/03 00:15:23;;;;;;;0.30;0.30;;;15.10;99.90;;;;;;4265995;33;20072;-76
2022/09/03 00:17:52;;;;;;;0.30;0.30;;;15.10;99.90;;;;;;4268598;33;20496;-76
2022/09/03 00:20:48;;;;;;;0.50;0.50;;;15.10;99.90;;;;;;4272451;33;20415;-76
2022/09/03 00:23:21;;;;;;;0.50;0.50;;;15.00;99.90;;;;;;4255341;33;20077;-76
2022/09/03 00:25:52;;;;;;;0.30;0.30;;;15.10;99.90;;;;;;4267877;33;20093;-76
2022/09/03 00:28:24;;;;;;;0.40;0.40;;;15.10;99.90;;;;;;4254498;33;20702;-76
2022/09/03 00:30:55;;;;;;;1.33;0.65;;;15.00;99.90;;;;;;4267247;33;20085;-76
2022/09/03 00:33:24;;;;;;;0.30;0.30;;;15.00;99.90;;;;;;4269430;33;20533;-76
2022/09/03 00:36:15;;;;;;;0.30;0.30;;;15.00;99.90;;;;;;4267711;33;20069;-76
2022/09/03 00:38:40;;;;;;;0.40;0.40;;;15.00;99.90;;;;;;4257618;33;20084;-76
2022/09/03 00:41:19;;;;;;;0.30;0.30;;;14.90;99.90;;;;;;4266364;33;20053;-76
2022/09/03 00:44:22;;;;;;;0.30;0.30;;;14.90;99.90;;;;;;4266753;33;20141;-76
2022/09/03 00:47:00;;;;;;;0.40;0.40;;;14.80;99.90;;;;;;4258561;33;20537;-75
2022/09/03 00:49:43;;;;;;;0.40;0.40;;;14.80;99.90;;;;;;4269199;33;20088;-76
2022/09/03 00:52:23;;;;;;;0.30;0.30;;;14.80;99.90;;;;;;4268747;33;20086;-76
2022/09/03 00:55:14;;;;;;;0.40;0.40;;;14.70;99.90;;;;;;4267644;33;20133;-75
2022/09/03 00:57:48;;;;;;;0.25;0.25;;;14.70;99.90;;;;;;4247973;33;20073;-76
2022/09/03 01:00:18;;;;;;;0.47;0.47;;;14.80;99.90;;;;;;4266075;33;20085;-76
2022/09/03 01:02:50;;;;;;;0.40;0.40;;;14.80;99.90;;;;;;4267721;33;20545;-76
2022/09/03 01:05:58;;;;;;;0.30;0.30;;;14.70;99.90;;;;;;4268480;33;20110;-76
2022/09/03 01:08:59;;;;;;;0.30;0.30;;;14.70;99.90;;;;;;4254413;33;20068;-76
2022/09/03 01:11:41;;;;;;;0.62;0.62;;;14.70;99.90;;;;;;4256373;33;20171;-76
2022/09/03 01:14:17;;;;;;;0.30;0.30;;;14.70;99.90;;;;;;4263869;33;20504;-76
2022/09/03 01:17:23;;;;;;;0.30;0.30;;;14.70;99.90;;;;;;4265042;33;20081;-76
2022/09/03 01:20:13;;;;;;;0.62;0.50;;;14.60;99.90;;;;;;4255079;33;20084;-76
2022/09/03 01:23:19;;;;;;;0.30;0.30;;;14.60;99.90;;;;;;4253606;33;20065;-76
2022/09/03 01:25:53;;;;;;;0.30;0.30;;;14.50;99.90;;;;;;4245261;33;20073;-76
2022/09/03 01:28:37;;;;;;;0.37;0.37;;;14.60;99.90;;;;;;4248909;33;20566;-76
2022/09/03 01:31:15;;;;;;;0.40;0.40;;;14.60;99.90;;;;;;4265546;33;20184;-76
2022/09/03 01:33:56;;;;;;;0.40;0.40;;;14.50;99.90;;;;;;4266311;33;20427;-76
2022/09/03 01:36:33;;;;;;;0.30;0.30;;;14.50;99.90;;;;;;4262441;33;20139;-76
2022/09/03 01:39:02;;;;;;;0.30;0.30;;;14.50;99.90;;;;;;4264694;33;20105;-76
2022/09/03 01:42:17;;;;;;;0.30;0.30;;;14.40;99.90;;;;;;4265093;33;20118;-76
2022/09/03 01:45:00;;;;;;;0.40;0.40;;;14.40;99.90;;;;;;4258861;33;20553;-76
2022/09/03 01:47:49;;;;;;;0.30;0.30;;;14.50;99.90;;;;;;4264411;33;20082;-76
2022/09/03 01:50:27;;;;;;;5.75;0.65;;;14.40;99.90;;;;;;4254310;33;20077;-76
2022/09/03 01:53:15;;;;;;;0.30;0.30;;;14.40;99.90;;;;;;4264693;33;20057;-76
2022/09/03 01:56:20;;;;;;;0.50;0.50;;;14.30;99.90;;;;;;4264286;33;20086;-76
2022/09/03 01:59:02;;;;;;;0.35;0.35;;;14.20;99.90;;;;;;4240899;33;20113;-76
2022/09/03 02:01:33;;;;;;;1.02;0.57;;;14.30;99.90;;;;;;4264869;33;20458;-76
2022/09/03 02:03:59;;;;;;;0.37;0.37;;;14.30;99.90;;;;;;4267592;33;20080;-76
2022/09/03 02:06:26;;;;;;;0.30;0.30;;;14.30;99.90;;;;;;4267091;33;20122;-76
2022/09/03 02:08:52;;;;;;;0.30;0.30;;;14.30;99.90;;;;;;4264130;33;20548;-76
2022/09/03 02:11:18;;;;;;;0.20;0.20;;;14.20;99.90;;;;;;4265070;33;20073;-76
2022/09/03 02:13:48;;;;;;;0.70;0.60;;;14.20;99.90;;;;;;4265342;33;20541;-75
2022/09/03 02:16:19;;;;;;;0.30;0.30;;;14.20;99.90;;;;;;4265827;33;20099;-76
2022/09/03 02:18:49;;;;;;;0.30;0.30;;;14.20;99.90;;;;;;4263944;33;20084;-76
2022/09/03 02:21:19;;;;;;;0.40;0.40;;;14.20;99.90;;;;;;4268654;33;20204;-76
2022/09/03 02:23:45;;;;;;;0.25;0.25;;;14.20;99.90;;;;;;4264564;33;20538;-76
2022/09/03 02:26:14;;;;;;;0.43;0.43;;;14.20;99.90;;;;;;4261888;33;20122;-76
2022/09/03 02:28:40;;;;;;;0.30;0.30;;;14.20;99.90;;;;;;4250703;33;20093;-76
2022/09/03 02:31:06;;;;;;;0.43;0.43;;;14.20;99.90;;;;;;4264691;33;20064;-75
2022/09/03 02:33:36;;;;;;;0.40;0.40;;;14.10;99.90;;;;;;4264463;33;20126;-76
2022/09/03 02:36:04;;;;;;;0.30;0.30;;;14.10;99.90;;;;;;4261912;33;20084;-76
2022/09/03 02:38:30;;;;;;;0.37;0.37;;;14.10;99.90;;;;;;4264835;33;20108;-76
2022/09/03 02:40:55;;;;;;;0.30;0.30;;;14.00;99.90;;;;;;4264559;33;20440;-76
2022/09/03 02:43:29;;;;;;;0.40;0.40;;;14.00;99.90;;;;;;4264486;33;20092;-76
2022/09/03 02:46:00;;;;;;;1.95;0.40;;;13.90;99.90;;;;;;4263648;33;20073;-76
2022/09/03 02:48:26;;;;;;;0.43;0.43;;;13.90;99.90;;;;;;4264735;33;20077;-76
2022/09/03 02:50:52;;;;;;;1.10;0.60;;;13.80;99.90;;;;;;4263921;33;20077;-76
2022/09/03 02:53:17;;;;;;;0.40;0.40;;;13.80;99.90;;;;;;4265253;33;20392;-76
2022/09/03 02:55:43;;;;;;;0.28;0.28;;;13.80;99.90;;;;;;4264796;33;20111;-76
2022/09/03 02:58:08;;;;;;;0.40;0.40;;;13.80;99.90;;;;;;4249571;33;20089;-76
2022/09/03 03:00:36;;;;;;;0.40;0.40;;;13.70;99.90;;;;;;4264745;33;20125;-76
2022/09/03 03:03:02;;;;;;;0.30;0.30;;;13.70;99.90;;;;;;4264628;33;20066;-76
2022/09/03 03:05:43;;;;;;;0.30;0.30;;;13.70;99.90;;;;;;4263326;33;20068;-76
2022/09/03 03:08:13;;;;;;;0.30;0.30;;;13.70;99.90;;;;;;4265606;33;20603;-76
2022/09/03 03:10:40;;;;;;;0.30;0.30;;;13.70;99.90;;;;;;4263920;33;20085;-76
2022/09/03 03:13:05;;;;;;;0.30;0.30;;;13.70;99.90;;;;;;4264491;33;20602;-76
2022/09/03 03:15:31;;;;;;;0.30;0.30;;;13.60;99.90;;;;;;4265480;33;20069;-76
2022/09/03 03:17:57;;;;;;;0.28;0.28;;;13.60;99.90;;;;;;4264939;33;20069;-76
2022/09/03 03:20:23;;;;;;;0.30;0.30;;;13.50;99.90;;;;;;4263960;33;20065;-76
2022/09/03 03:22:48;;;;;;;0.40;0.40;;;13.60;99.90;;;;;;4266949;33;20097;-76
2022/09/03 03:25:14;;;;;;;0.30;0.30;;;13.60;99.90;;;;;;4261688;33;20952;-76
2022/09/03 03:27:41;;;;;;;0.30;0.30;;;13.50;99.90;;;;;;4256203;33;20065;-76
2022/09/03 03:30:09;;;;;;;0.30;0.30;;;13.40;99.90;;;;;;4258983;33;20061;-76
2022/09/03 03:32:36;;;;;;;0.70;0.60;;;13.40;99.90;;;;;;4264845;33;20540;-76
2022/09/03 03:35:02;;;;;;;0.40;0.40;;;13.30;99.90;;;;;;4263383;33;20131;-76
2022/09/03 03:37:27;;;;;;;0.52;0.30;;;13.30;99.90;;;;;;4264402;33;20068;-76
2022/09/03 03:39:53;;;;;;;0.60;0.60;;;13.30;99.90;;;;;;4264419;33;20416;-76
2022/09/03 03:42:18;;;;;;;0.43;0.43;;;13.40;99.90;;;;;;4265117;33;20073;-76
2022/09/03 03:44:44;;;;;;;0.20;0.20;;;13.30;99.90;;;;;;4263709;33;20077;-76
2022/09/03 03:47:09;;;;;;;0.37;0.37;;;13.30;99.90;;;;;;4268192;33;20077;-76
2022/09/03 03:49:35;;;;;;;0.30;0.30;;;13.30;99.90;;;;;;4264152;33;20126;-76
2022/09/03 03:52:02;;;;;;;0.45;0.45;;;13.40;99.90;;;;;;4264241;33;20093;-76
2022/09/03 03:54:27;;;;;;;0.40;0.40;;;13.30;99.90;;;;;;4263675;33;20096;-76
2022/09/03 03:56:52;;;;;;;0.40;0.40;;;13.30;99.90;;;;;;4264899;33;20120;-76
2022/09/03 03:59:18;;;;;;;0.45;0.45;;;13.30;99.90;;;;;;4251248;33;20065;-76
2022/09/03 04:01:43;;;;;;;0.50;0.50;;;13.30;99.90;;;;;;4264791;33;20082;-76
2022/09/03 04:04:09;;;;;;;0.37;0.37;;;13.30;99.90;;;;;;4265568;33;20540;-76
2022/09/03 04:06:34;;;;;;;0.45;0.45;;;13.30;99.90;;;;;;4264797;33;20073;-75
2022/09/03 04:09:00;;;;;;;0.40;0.40;;;13.30;99.90;;;;;;4263548;33;20655;-76
2022/09/03 04:11:25;;;;;;;0.73;0.73;;;13.30;99.90;;;;;;4264900;33;20545;-76
2022/09/03 04:13:52;;;;;;;0.30;0.30;;;13.20;99.90;;;;;;4263882;33;20073;-76
2022/09/03 04:16:21;;;;;;;0.30;0.30;;;13.30;99.90;;;;;;4265272;33;20061;-76
2022/09/03 04:18:48;;;;;;;0.30;0.30;;;13.20;99.90;;;;;;4264330;33;20078;-76
2022/09/03 04:21:18;;;;;;;0.30;0.30;;;13.20;99.90;;;;;;4263790;33;20090;-76
2022/09/03 04:23:47;;;;;;;0.47;0.47;;;13.20;99.90;;;;;;4262954;33;20502;-76
2022/09/03 04:26:15;;;;;;;0.30;0.30;;;13.30;99.90;;;;;;4264635;33;20061;-76
2022/09/03 04:28:41;;;;;;;1.55;0.95;;;13.30;99.90;;;;;;4250856;33;20061;-76
2022/09/03 04:31:09;;;;;;;4.32;0.77;;;13.30;99.90;;;;;;4264654;33;20113;-76
2022/09/03 04:33:36;;;;;;;0.90;0.70;;;13.20;99.90;;;;;;4264080;33;20134;-76
2022/09/03 04:36:09;;;;;;;0.68;0.68;;;13.20;99.90;;;;;;4263205;33;20069;-76
2022/09/03 04:38:37;;;;;;;2.72;1.30;;;13.30;99.90;;;;;;4264244;33;20073;-76
2022/09/03 04:41:05;;;;;;;0.40;0.40;;;13.20;99.90;;;;;;4263755;33;20090;-76
2022/09/03 04:43:30;;;;;;;0.43;0.43;;;13.30;99.90;;;;;;4266122;33;20054;-76
2022/09/03 04:45:58;;;;;;;0.30;0.30;;;13.30;99.90;;;;;;4266220;33;20084;-76
2022/09/03 04:48:25;;;;;;;0.43;0.43;;;13.40;99.90;;;;;;4265875;33;20060;-76
2022/09/03 04:50:51;;;;;;;0.32;0.32;;;13.40;99.90;;;;;;4267158;33;20060;-76
2022/09/03 04:53:16;;;;;;;0.50;0.50;;;13.30;99.90;;;;;;4266168;33;20139;-76
2022/09/03 04:55:42;;;;;;;0.40;0.40;;;13.40;99.90;;;;;;4265150;33;20069;-76
2022/09/03 04:58:07;;;;;;;0.35;0.35;;;13.30;99.90;;;;;;4251049;33;20152;-75
2022/09/03 05:00:34;;;;;;;0.50;0.50;;;13.30;99.90;;;;;;4266265;33;20065;-76
2022/09/03 05:03:00;;;;;;;0.20;0.20;;;13.40;99.90;;;;;;4265091;33;20065;-75
2022/09/03 05:05:25;;;;;;;0.40;0.40;;;13.50;99.90;;;;;;4265209;33;20072;-76
2022/09/03 05:07:52;;;;;;;0.40;0.40;;;13.50;99.90;;;;;;4267333;33;20133;-76
2022/09/03 05:10:21;;;;;;;0.30;0.30;;;13.50;99.90;;;;;;4265416;33;20080;-76
2022/09/03 05:12:48;;;;;;;0.52;0.52;;;13.50;99.90;;;;;;4265134;33;20813;-76
2022/09/03 05:15:14;;;;;;;0.93;0.65;;;13.60;99.90;;;;;;4265936;33;20061;-76
2022/09/03 05:17:40;;;;;;;0.50;0.50;;;13.60;99.90;;;;;;4265887;33;20086;-76
2022/09/03 05:20:07;;;;;;;0.47;0.47;;;13.60;99.90;;;;;;4265703;33;20130;-76
2022/09/03 05:22:33;;;;;;;0.40;0.40;;;13.60;99.90;;;;;;4266719;33;20073;-76
2022/09/03 05:24:59;;;;;;;0.40;0.40;;;13.60;99.90;;;;;;4261688;33;20092;-76
2022/09/03 05:27:24;;;;;;;0.50;0.50;;;13.60;99.90;;;;;;4257414;33;20621;-76
2022/09/03 05:29:50;;;;;;;0.32;0.32;;;13.60;99.90;;;;;;4257785;33;20084;-76
2022/09/03 05:32:16;;;;;;;0.40;0.40;;;13.60;99.90;;;;;;4265494;33;20527;-76
2022/09/03 05:34:42;;;;;;;1.52;0.82;;;13.70;99.90;;;;;;4264827;33;20100;-76
2022/09/03 05:37:08;;;;;;;1.85;1.65;;;13.70;99.90;;;;;;4264728;33;20069;-76
2022/09/03 05:39:33;;;;;;;0.85;0.40;;;13.70;99.90;;;;;;4266028;33;20084;-76
2022/09/03 05:41:59;;;;;;;0.40;0.35;;;13.70;99.90;;;;;;4266483;33;20073;-76
2022/09/03 05:44:24;;;;;;;0.37;0.37;;;13.70;99.90;;;;;;4264895;33;20086;-76
2022/09/03 05:46:50;;;;;;;3.42;1.20;;;13.80;99.90;;;;;;4264956;33;20062;-76
2022/09/03 05:49:16;;;;;;;1.90;0.50;;;13.90;99.90;;;;;;4266453;33;20061;-76
2022/09/03 05:51:42;;;;;;;0.50;0.45;;;13.90;99.90;;;;;;4267525;33;20085;-76
2022/09/03 05:54:08;;;;;;;0.60;0.60;;;14.00;99.90;;;;;;4266161;33;20126;-75
2022/09/03 05:56:36;;;;;;;0.40;0.40;;;14.00;99.90;;;;;;4264927;33;20085;-76
2022/09/03 05:59:05;;;;;;;0.30;0.30;;;14.00;99.90;;;;;;4251067;33;20113;-76
2022/09/03 06:01:34;;;;;;;2.33;1.40;;;14.00;99.90;;;;;;4265051;33;20122;-76
2022/09/03 06:04:03;;;;;;;0.30;0.30;;;14.10;99.90;;;;;;4264386;33;20133;-76
2022/09/03 06:06:31;;;;;;;0.85;0.55;;;14.10;99.90;;;;;;4264626;33;20057;-76
2022/09/03 06:09:01;;;;;;;1.12;0.75;;;14.20;99.90;;;;;;4265184;33;20141;-76
2022/09/03 06:11:28;;;;;;;0.30;0.30;;;14.20;99.90;;;;;;4264526;33;20529;-76
2022/09/03 06:13:56;;;;;;;0.50;0.50;;;14.20;99.90;;;;;;4267486;33;20126;-76
2022/09/03 06:16:22;;;;;;;1.30;0.50;;;14.30;99.90;;;;;;4266401;33;20073;-76
2022/09/03 06:18:48;;;;;;;0.40;0.40;;;14.40;99.90;;;;;;4266641;33;20068;-76
2022/09/03 06:21:14;;;;;;;0.30;0.30;;;14.40;99.90;;;;;;4264832;33;20070;-76
2022/09/03 06:23:40;;;;;;;0.35;0.35;;;14.40;99.90;;;;;;4263776;33;20513;-76
2022/09/03 06:26:10;;;;;;;0.30;0.30;;;14.50;99.90;;;;;;4263732;33;20061;-76
2022/09/03 06:28:38;;;;;;;3.33;0.50;;;14.50;99.90;;;;;;4250471;33;20081;-76
2022/09/03 06:31:06;;;;;;;0.45;0.40;;;14.50;99.90;;;;;;4264643;33;20441;-76
2022/09/03 06:33:33;;;;;;;1.02;0.77;;;14.60;99.90;;;;;;4265456;33;20438;-76
2022/09/03 06:36:00;;;;;;;0.40;0.40;;;14.70;99.90;;;;;;4266349;33;20136;-76
2022/09/03 06:38:30;;;;;;;0.30;0.30;;;14.70;99.90;;;;;;4264828;33;20061;-76
2022/09/03 06:41:01;;;;;;;0.43;0.40;;;14.70;99.90;;;;;;4265663;33;20522;-76
2022/09/03 06:43:27;;;;;;;0.40;0.40;;;14.70;99.90;;;;;;4263992;33;20101;-76
2022/09/03 06:45:57;;;;;;;1.45;1.12;;;14.70;99.90;;;;;;4264636;33;20065;-77
2022/09/03 06:48:23;;;;;;;0.40;0.40;;;14.70;99.90;;;;;;4265701;33;20089;-76
2022/09/03 06:50:57;;;;;;;0.30;0.30;;;14.70;99.90;;;;;;4265194;33;20078;-76
2022/09/03 06:53:24;;;;;;;0.37;0.37;;;14.80;99.90;;;;;;4260043;33;20076;-75
2022/09/03 06:56:00;;;;;;;0.40;0.40;;;14.90;99.90;;;;;;4262598;33;20132;-76
2022/09/03 06:58:31;;;;;;;0.40;0.40;;;14.90;99.90;;;;;;4249422;33;20090;-76
2022/09/03 07:01:06;;;;;;;0.37;0.37;;;15.00;99.90;;;;;;4265026;33;20565;-75
2022/09/03 07:03:32;;;;;;;0.40;0.40;;;15.00;99.90;;;;;;4265854;33;20088;-76
2022/09/03 07:06:07;;;;;;;4.78;0.88;;;15.00;99.90;;;;;;4262806;33;20073;-75
2022/09/03 07:08:34;;;;;;;0.30;0.30;;;15.10;99.90;;;;;;4264375;33;20079;-76
2022/09/03 07:11:04;;;;;;;0.40;0.40;;;15.10;99.90;;;;;;4265498;33;20564;-75
2022/09/03 07:13:29;;;;;;;11.00;0.50;;;15.10;99.90;;;;;;4264004;33;20089;-75
2022/09/03 07:16:00;;;;;;;0.60;0.60;;;15.10;99.90;;;;;;4265023;33;20080;-75
2022/09/03 07:18:25;;;;;;;1.08;0.50;;;15.10;99.90;;;;;;4264828;33;20126;-76
2022/09/03 07:20:51;;;;;;;1.25;0.68;;;15.10;99.90;;;;;;4263362;33;20076;-76
2022/09/03 07:23:17;;;;;;;0.47;0.47;;;15.30;99.90;;;;;;4264766;33;20088;-76
2022/09/03 07:25:42;;;;;;;0.65;0.65;;;15.30;99.90;;;;;;4262691;33;20149;-76
2022/09/03 07:28:08;;;;;;;0.45;0.35;;;15.40;99.90;;;;;;4250889;33;20180;-76
2022/09/03 07:30:33;;;;;;;0.50;0.50;;;15.40;99.90;;;;;;4264705;33;20077;-75
2022/09/03 07:33:03;;;;;;;0.30;0.30;;;15.50;99.90;;;;;;4265387;33;20084;-76
2022/09/03 07:35:28;;;;;;;0.40;0.40;;;15.60;99.90;;;;;;4264552;33;20073;-76
2022/09/03 07:37:54;;;;;;;0.30;0.30;;;15.60;99.90;;;;;;4265478;33;20118;-76
2022/09/03 07:40:19;;;;;;;0.30;0.30;;;15.60;99.90;;;;;;4264450;33;20061;-76
2022/09/03 07:42:47;;;;;;;0.50;0.50;;;15.70;99.90;;;;;;4265810;33;20069;-75
2022/09/03 07:45:12;;;;;;;0.30;0.30;;;15.80;99.90;;;;;;4265253;33;20457;-75
2022/09/03 07:47:46;;;;;;;0.30;0.30;;;15.90;99.90;;;;;;4264122;33;20161;-75
2022/09/03 07:50:11;;;;;;;0.80;0.65;;;15.90;99.90;;;;;;4263611;33;20114;-76
2022/09/03 07:52:37;;;;;;;2.87;1.00;;;15.90;99.90;;;;;;4263693;33;20081;-75
2022/09/03 07:55:03;;;;;;;0.30;0.30;;;16.10;99.90;;;;;;4263357;33;20080;-75
2022/09/03 07:57:29;;;;;;;0.40;0.40;;;16.20;99.90;;;;;;4258550;33;20120;-76
2022/09/03 07:59:54;;;;;;;0.40;0.40;;;16.20;99.90;;;;;;4258969;33;20125;-76
2022/09/03 08:02:20;;;;;;;0.32;0.32;;;16.20;99.90;;;;;;4266482;33;20089;-75
2022/09/03 08:04:46;;;;;;;0.30;0.30;;;16.20;99.90;;;;;;4264262;33;20073;-75
2022/09/03 08:07:11;;;;;;;0.30;0.30;;;16.40;99.90;;;;;;4264668;33;20086;-76
2022/09/03 08:09:37;;;;;;;1.00;0.68;;;16.50;99.90;;;;;;4264407;33;20102;-76
2022/09/03 08:12:02;;;;;;;0.40;0.40;;;16.60;99.90;;;;;;4266295;33;20424;-76
2022/09/03 08:14:30;;;;;;;0.35;0.35;;;16.70;99.90;;;;;;4265183;33;20431;-76
2022/09/03 08:16:58;;;;;;;0.40;0.40;;;16.80;99.90;;;;;;4267348;33;20066;-76
2022/09/03 08:19:24;;;;;;;0.30;0.30;;;16.90;99.90;;;;;;4267948;33;20068;-76
2022/09/03 08:21:49;;;;;;;0.45;0.45;;;17.00;99.90;;;;;;4270210;33;20081;-75
2022/09/03 08:24:19;;;;;;;0.35;0.35;;;17.10;99.90;;;;;;4265615;33;20061;-75
2022/09/03 08:26:45;;;;;;;0.73;0.55;;;17.20;99.90;;;;;;4267064;33;20069;-75
2022/09/03 08:29:10;;;;;;;7.35;1.12;;;17.20;99.90;;;;;;4254703;33;21479;-75
2022/09/03 08:31:36;;;;;;;3.72;1.10;;;17.30;99.90;;;;;;4265428;33;80991;-75
2022/09/03 08:34:05;;;;;;;0.57;0.52;;;17.30;99.90;;;;;;4268972;33;20080;-75
2022/09/03 08:36:33;;;;;;;0.22;0.22;;;17.50;99.90;;;;;;4252740;33;20081;-75
2022/09/03 08:39:02;;;;;;;0.55;0.40;;;17.60;99.90;;;;;;4267118;33;20093;-75
2022/09/03 08:41:46;;;;;;;0.30;0.30;;;17.80;99.90;;;;;;4266822;33;20077;-75
2022/09/03 08:44:18;;;;;;;1.23;0.40;;;17.90;99.90;;;;;;4266622;33;20104;-76
2022/09/03 08:47:05;;;;;;;0.52;0.52;;;18.00;99.90;;;;;;4267714;33;20081;-76
2022/09/03 08:49:54;;;;;;;0.40;0.40;;;18.30;99.90;;;;;;4267882;33;20085;-75
2022/09/03 08:52:26;;;;;;;0.45;0.45;;;18.40;99.90;;;;;;4255646;33;20104;-75
2022/09/03 08:54:57;;;;;;;6.82;0.50;;;18.50;99.90;;;;;;4266252;33;20069;-75
2022/09/03 08:57:24;;;;;;;0.62;0.62;;;18.50;99.90;;;;;;4259547;33;20068;-75
2022/09/03 08:59:54;;;;;;;0.30;0.30;;;18.60;99.90;;;;;;4258981;33;20077;-75
2022/09/03 09:02:26;;;;;;;0.80;0.52;;;18.60;99.90;;;;;;4268267;33;20073;-75
2022/09/03 09:05:16;;;;;;;0.30;0.30;;;18.70;99.90;;;;;;4254531;33;20073;-76
2022/09/03 09:07:52;;;;;;;0.90;0.55;;;18.80;99.90;;;;;;4257567;33;20064;-75
2022/09/03 09:10:32;;;;;;;0.40;0.40;;;19.00;99.90;;;;;;4266084;33;20513;-76
2022/09/03 09:13:15;;;;;;;0.52;0.45;;;19.20;99.70;;;;;;4267126;33;20065;-76
2022/09/03 09:15:56;;;;;;;0.60;0.60;;;19.30;99.90;;;;;;4265471;33;20564;-76
2022/09/03 09:18:40;;;;;;;0.30;0.30;;;19.50;99.90;;;;;;4266396;33;20077;-75
2022/09/03 09:21:27;;;;;;;0.40;0.40;;;19.60;99.90;;;;;;4267541;33;20512;-76
2022/09/03 09:23:59;;;;;;;0.20;0.20;;;19.70;99.90;;;;;;4265313;33;20080;-76
2022/09/03 09:26:24;;;;;;;0.40;0.40;;;19.90;99.90;;;;;;4265947;33;20125;-75
2022/09/03 09:29:10;;;;;;;1.58;0.65;;;20.00;99.40;;;;;;4247430;33;20154;-75
2022/09/03 09:31:37;;;;;;;0.50;0.50;;;20.10;99.50;;;;;;4264284;33;20122;-76
2022/09/03 09:34:05;;;;;;;0.30;0.30;;;20.20;98.40;;;;;;4266579;33;20085;-76
2022/09/03 09:36:36;;;;;;;0.20;0.20;;;20.40;97.80;;;;;;4265514;33;20077;-75
2022/09/03 09:39:10;;;;;;;0.30;0.30;;;20.60;97.60;;;;;;4265878;33;20165;-76
2022/09/03 09:41:36;;;;;;;0.40;0.40;;;20.60;98.10;;;;;;4266492;33;20082;-76
2022/09/03 09:44:04;;;;;;;0.40;0.40;;;20.90;97.60;;;;;;4266221;33;20064;-76
2022/09/03 09:46:35;;;;;;;0.25;0.25;;;21.00;96.30;;;;;;4265158;33;20094;-76
2022/09/03 09:49:01;;;;;;;1.08;0.45;;;21.10;95.70;;;;;;4265630;33;20509;-76
2022/09/03 09:51:30;;;;;;;0.45;0.45;;;21.20;95.60;;;;;;4266053;33;20126;-76
2022/09/03 09:54:01;;;;;;;0.30;0.30;;;21.30;95.40;;;;;;4265282;33;20497;-76
2022/09/03 09:56:27;;;;;;;0.30;0.30;;;21.60;95.30;;;;;;4265930;33;20529;-76
2022/09/03 09:59:09;;;;;;;0.30;0.30;;;21.80;93.90;;;;;;4252330;33;20061;-76
2022/09/03 10:01:38;;;;;;;3.62;1.62;;;21.90;93.30;;;;;;4265668;33;20080;-76
2022/09/03 10:04:20;;;;;;;0.30;0.30;;;22.00;92.40;;;;;;4265742;33;20126;-76
2022/09/03 10:06:54;;;;;;;0.40;0.40;;;22.00;92.60;;;;;;4264937;33;20085;-75
2022/09/03 10:09:22;;;;;;;0.30;0.30;;;22.10;91.60;;;;;;4265474;33;20096;-76
2022/09/03 10:11:54;;;;;;;5.93;0.75;;;22.20;91.50;;;;;;4265457;33;20138;-76
2022/09/03 10:14:23;;;;;;;0.30;0.30;;;22.40;91.20;;;;;;4266260;33;20096;-75
2022/09/03 10:16:58;;;;;;;0.40;0.40;;;22.50;91.00;;;;;;4265260;33;20126;-76
2022/09/03 10:19:33;;;;;;;0.30;0.30;;;22.50;91.80;;;;;;4263912;33;20138;-77
2022/09/03 10:22:08;;;;;;;0.37;0.37;;;22.40;92.00;;;;;;4266233;33;20072;-77
2022/09/03 10:24:47;;;;;;;0.20;0.20;;;22.20;91.80;;;;;;4267804;33;20097;-77
2022/09/03 10:27:15;;;;;;;0.30;0.30;;;22.10;91.90;;;;;;4263228;33;20506;-77
2022/09/03 10:29:41;;;;;;;2.35;0.40;;;22.20;91.40;;;;;;4254729;33;20239;-77
2022/09/03 10:32:22;;;;;;;0.30;0.30;;;22.40;91.20;;;;;;4265263;33;20089;-77
2022/09/03 10:35:11;;;;;;;0.30;0.30;;;22.30;90.70;;;;;;4264774;33;20092;-77
2022/09/03 10:37:52;;;;;;;0.52;0.52;;;22.10;91.80;;;;;;4265586;33;20085;-77
2022/09/03 10:40:35;;;;;;;0.37;0.37;;;22.20;91.70;;;;;;4263042;33;20081;-75
2022/09/03 10:43:41;;;;;;;0.20;0.20;;;22.10;92.00;;;;;;4261383;33;20068;-76
2022/09/03 10:46:14;;;;;;;0.30;0.30;;;21.90;91.90;;;;;;4245071;33;20076;-76
2022/09/03 10:49:07;;;;;;;0.43;0.43;;;21.60;92.70;;;;;;4264122;33;20112;-76
2022/09/03 10:51:39;;;;;;;0.30;0.30;;;21.40;92.80;;;;;;4253280;33;20077;-75
2022/09/03 10:54:21;;;;;;;3.20;1.08;;;21.40;93.00;;;;;;4265107;33;20061;-76
2022/09/03 10:57:02;;;;;;;0.40;0.40;;;21.40;92.70;;;;;;4264998;33;20138;-76
2022/09/03 10:59:56;;;;;;;0.73;0.55;;;21.40;92.10;;;;;;4250144;33;20084;-75
2022/09/03 11:02:51;;;;;;;0.50;0.50;;;21.50;91.60;;;;;;4255910;33;20130;-75
2022/09/03 11:05:39;;;;;;;0.30;0.30;;;21.50;91.40;;;;;;4262469;33;20097;-76
2022/09/03 11:08:22;;;;;;;0.30;0.30;;;21.50;91.50;;;;;;4249668;33;20434;-76
2022/09/03 11:10:53;;;;;;;0.30;0.30;;;21.90;91.60;;;;;;4264243;33;20108;-76
2022/09/03 11:13:26;;;;;;;0.20;0.20;;;22.60;90.40;;;;;;4266198;33;20077;-76
2022/09/03 11:15:58;;;;;;;2.20;0.62;;;23.10;87.40;;;;;;4264470;33;20135;-76
2022/09/03 11:18:29;;;;;;;0.32;0.32;;;23.50;87.70;;;;;;4265347;33;20134;-76
2022/09/03 11:21:00;;;;;;;0.20;0.20;;;23.90;85.60;;;;;;4265101;33;20077;-76
2022/09/03 11:23:30;;;;;;;0.22;0.22;;;24.20;84.30;;;;;;4266069;33;20084;-76
2022/09/03 11:25:58;;;;;;;0.20;0.20;;;24.60;84.90;;;;;;4263651;33;20100;-76
2022/09/03 11:28:48;;;;;;;0.40;0.40;;;24.50;83.20;;;;;;4250269;33;20085;-76
2022/09/03 11:31:26;;;;;;;0.20;0.20;;;24.50;82.80;;;;;;4252865;33;20089;-76
2022/09/03 11:34:03;;;;;;;0.20;0.20;;;24.30;82.70;;;;;;4265377;33;20061;-76
2022/09/03 11:36:32;;;;;;;0.20;0.20;;;24.10;83.10;;;;;;4262744;33;20588;-77
2022/09/03 11:38:59;;;;;;;0.20;0.20;;;24.30;82.00;;;;;;4261080;33;20081;-77
2022/09/03 11:41:28;;;;;;;0.50;0.50;;;24.10;81.40;;;;;;4263567;33;20069;-76
2022/09/03 11:43:54;;;;;;;0.30;0.30;;;23.60;82.50;;;;;;4264307;33;20080;-76
2022/09/03 11:46:23;;;;;;;0.20;0.20;;;23.30;84.70;;;;;;4263571;33;20478;-76
2022/09/03 11:48:51;;;;;;;0.20;0.20;;;23.10;85.90;;;;;;4262445;33;20143;-76
2022/09/03 11:51:30;;;;;;;0.28;0.25;;;23.10;83.80;;;;;;4262825;33;20096;-76
2022/09/03 11:54:00;;;;;;;0.43;0.43;;;22.90;82.20;;;;;;4262792;33;20084;-76
2022/09/03 11:56:27;;;;;;;0.47;0.47;;;22.80;83.30;;;;;;4263385;33;20089;-76
2022/09/03 11:59:22;;;;;;;0.20;0.20;;;22.90;83.20;;;;;;4248856;33;20530;-75
2022/09/03 12:01:57;;;;;;;0.20;0.20;;;23.30;81.20;;;;;;4265496;33;20344;-77
2022/09/03 12:04:34;;;;;;;0.30;0.30;;;23.00;81.00;;;;;;4262231;33;20089;-77
2022/09/03 12:07:18;;;;;;;0.25;0.25;;;22.90;83.00;;;;;;4263720;33;20448;-77
2022/09/03 12:10:09;;;;;;;0.20;0.20;;;23.20;81.60;;;;;;4264023;33;20124;-77
2022/09/03 12:13:07;;;;;;;0.20;0.20;;;23.10;82.40;;;;;;4251560;33;20568;-76
2022/09/03 12:15:45;;;;;;;0.20;0.20;;;22.90;82.30;;;;;;4250673;33;20154;-76
2022/09/03 12:18:17;;;;;;;0.22;0.22;;;22.70;83.50;;;;;;4264097;33;20082;-76
2022/09/03 12:20:45;;;;;;;0.32;0.32;;;22.80;83.90;;;;;;4262823;33;20476;-76
2022/09/03 12:23:25;;;;;;;0.57;0.37;;;23.30;82.60;;;;;;4263728;33;20065;-76
2022/09/03 12:25:52;;;;;;;1.27;0.43;;;24.20;80.30;;;;;;4264126;33;20088;-77
2022/09/03 12:28:22;;;;;;;0.35;0.35;;;25.10;79.40;;;;;;4249224;33;20085;-77
2022/09/03 12:30:52;;;;;;;;;;;25.60;75.50;;;;;;4264459;33;20085;-76
2022/09/03 12:33:18;;;;;;;0.98;0.50;;;24.80;77.00;;;;;;4262781;33;19965;-77
2022/09/03 12:35:55;;;;;;;1.37;0.95;;;24.90;77.50;;;;;;4265674;33;20069;-77
2022/09/03 12:38:24;;;;;;;0.75;0.65;;;25.40;76.80;;;;;;4265059;33;20529;-76
2022/09/03 12:40:50;;;;;;;1.67;0.75;;;25.00;75.50;;;;;;4263962;33;20518;-76
2022/09/03 12:43:17;;;;;;;0.30;0.30;;;24.60;76.90;;;;;;4263822;33;20127;-76
2022/09/03 12:45:45;;;;;;;0.25;0.25;;;24.20;81.10;;;;;;4259326;33;20064;-76
2022/09/03 12:48:15;;;;;;;0.52;0.40;;;24.10;79.00;;;;;;4262496;33;20073;-76
2022/09/03 12:50:41;;;;;;;0.30;0.30;;;24.30;78.40;;;;;;4255339;33;20077;-76
2022/09/03 12:53:09;;;;;;;0.20;0.20;;;24.80;76.20;;;;;;4258734;33;20109;-76
2022/09/03 12:55:40;;;;;;;0.20;0.20;;;24.70;76.70;;;;;;4260925;33;20139;-77
2022/09/03 12:58:27;;;;;;;17.87;0.62;;;24.40;78.30;;;;;;4250432;33;20108;-77
2022/09/03 13:01:07;;;;;;;0.30;0.30;;;24.10;77.70;;;;;;4264577;33;20092;-77
2022/09/03 13:03:42;;;;;;;1.45;0.88;;;23.80;79.20;;;;;;4269419;33;20549;-77
2022/09/03 13:06:12;;;;;;;0.10;0.10;;;23.60;78.30;;;;;;4265936;33;20090;-77
2022/09/03 13:08:46;;;;;;;0.30;0.30;;;24.20;77.70;;;;;;4266627;33;20077;-76
2022/09/03 13:11:16;;;;;;;1.08;0.30;;;25.00;76.40;;;;;;4266562;33;20469;-77
2022/09/03 13:13:54;;;;;;;0.20;0.20;;;25.20;75.00;;;;;;4266988;33;20062;-78